sensor_id;sensor_type;location;lat;lon;timestamp;P1;durP1;ratioP1;P2;durP2;ratioP2
21519;SDS011;10921;53.614;9.882;2023-03-01T00:00:49;40.42;;;25.17;;
21519;SDS011;10921;53.614;9.882;2023-03-01T00:03:16;37.17;;;24.40;;
21519;SDS011;10921;53.614;9.882;2023-03-01T00:05:46;40.33;;;25.15;;
21519;SDS011;10921;53.614;9.882;2023-03-01T00:08:13;42.55;;;25.05;;
21519;SDS011;10921;53.614;9.882;2023-03-01T00:10:39;38.00;;;26.00;;
21519;SDS011;10921;53.614;9.882;2023-03-01T00:13:06;43.13;;;24.83;;
21519;SDS011;10921;53.614;9.882;2023-03-01T00:15:32;39.03;;;24.10;;
21519;SDS011;10921;53.614;9.882;2023-03-01T00:18:00;40.85;;;25.48;;
21519;SDS011;10921;53.614;9.882;2023-03-01T00:20:27;35.40;;;25.20;;
21519;SDS011;10921;53.614;9.882;2023-03-01T00:22:54;36.58;;;25.05;;
21519;SDS011;10921;53.614;9.882;2023-03-01T00:25:20;39.47;;;26.15;;
21519;SDS011;10921;53.614;9.882;2023-03-01T00:27:47;36.58;;;24.10;;
21519;SDS011;10921;53.614;9.882;2023-03-01T00:30:15;32.22;;;24.13;;
21519;SDS011;10921;53.614;9.882;2023-03-01T00:32:41;37.25;;;24.48;;
21519;SDS011;10921;53.614;9.882;2023-03-01T00:35:08;43.97;;;25.33;;
21519;SDS011;10921;53.614;9.882;2023-03-01T00:37:34;35.22;;;25.33;;
21519;SDS011;10921;53.614;9.882;2023-03-01T00:40:01;45.72;;;26.17;;
21519;SDS011;10921;53.614;9.882;2023-03-01T00:42:28;40.88;;;25.77;;
21519;SDS011;10921;53.614;9.882;2023-03-01T00:44:54;44.00;;;26.45;;
21519;SDS011;10921;53.614;9.882;2023-03-01T00:47:20;44.08;;;26.02;;
21519;SDS011;10921;53.614;9.882;2023-03-01T00:49:47;39.10;;;25.60;;
21519;SDS011;10921;53.614;9.882;2023-03-01T00:52:14;41.70;;;25.13;;
21519;SDS011;10921;53.614;9.882;2023-03-01T00:54:41;39.55;;;25.45;;
21519;SDS011;10921;53.614;9.882;2023-03-01T00:57:07;39.60;;;26.48;;
21519;SDS011;10921;53.614;9.882;2023-03-01T00:59:33;40.03;;;24.65;;
21519;SDS011;10921;53.614;9.882;2023-03-01T01:02:01;41.67;;;26.75;;
21519;SDS011;10921;53.614;9.882;2023-03-01T01:04:27;38.65;;;25.38;;
21519;SDS011;10921;53.614;9.882;2023-03-01T01:06:54;44.75;;;27.73;;
21519;SDS011;10921;53.614;9.882;2023-03-01T01:09:20;38.55;;;26.02;;
21519;SDS011;10921;53.614;9.882;2023-03-01T01:11:48;42.40;;;27.92;;
21519;SDS011;10921;53.614;9.882;2023-03-01T01:14:16;38.35;;;26.30;;
21519;SDS011;10921;53.614;9.882;2023-03-01T01:16:44;44.47;;;26.90;;
21519;SDS011;10921;53.614;9.882;2023-03-01T01:19:11;46.05;;;27.52;;
21519;SDS011;10921;53.614;9.882;2023-03-01T01:21:37;46.63;;;27.08;;
21519;SDS011;10921;53.614;9.882;2023-03-01T01:24:04;38.05;;;25.58;;
21519;SDS011;10921;53.614;9.882;2023-03-01T01:26:31;44.97;;;26.90;;
21519;SDS011;10921;53.614;9.882;2023-03-01T01:29:00;42.22;;;27.02;;
21519;SDS011;10921;53.614;9.882;2023-03-01T01:31:28;40.00;;;26.63;;
21519;SDS011;10921;53.614;9.882;2023-03-01T01:33:56;40.88;;;26.30;;
21519;SDS011;10921;53.614;9.882;2023-03-01T01:36:23;41.70;;;26.00;;
21519;SDS011;10921;53.614;9.882;2023-03-01T01:38:49;39.40;;;25.55;;
21519;SDS011;10921;53.614;9.882;2023-03-01T01:41:16;42.45;;;25.67;;
21519;SDS011;10921;53.614;9.882;2023-03-01T01:43:45;41.00;;;25.60;;
21519;SDS011;10921;53.614;9.882;2023-03-01T01:48:57;40.55;;;26.20;;
21519;SDS011;10921;53.614;9.882;2023-03-01T01:51:28;42.50;;;25.88;;
21519;SDS011;10921;53.614;9.882;2023-03-01T01:56:55;38.85;;;25.40;;
21519;SDS011;10921;53.614;9.882;2023-03-01T01:59:26;40.38;;;26.13;;
21519;SDS011;10921;53.614;9.882;2023-03-01T02:01:55;40.13;;;26.25;;
21519;SDS011;10921;53.614;9.882;2023-03-01T02:04:23;37.28;;;26.02;;
21519;SDS011;10921;53.614;9.882;2023-03-01T02:06:53;38.30;;;26.85;;
21519;SDS011;10921;53.614;9.882;2023-03-01T02:09:24;40.85;;;25.35;;
21519;SDS011;10921;53.614;9.882;2023-03-01T02:11:51;37.45;;;25.30;;
21519;SDS011;10921;53.614;9.882;2023-03-01T02:14:19;43.67;;;24.67;;
21519;SDS011;10921;53.614;9.882;2023-03-01T02:16:46;38.58;;;24.65;;
21519;SDS011;10921;53.614;9.882;2023-03-01T02:19:26;39.67;;;25.50;;
21519;SDS011;10921;53.614;9.882;2023-03-01T02:22:25;42.15;;;26.45;;
21519;SDS011;10921;53.614;9.882;2023-03-01T02:25:04;44.55;;;25.95;;
21519;SDS011;10921;53.614;9.882;2023-03-01T02:30:35;36.80;;;25.48;;
21519;SDS011;10921;53.614;9.882;2023-03-01T02:33:02;35.95;;;23.70;;
21519;SDS011;10921;53.614;9.882;2023-03-01T02:35:38;35.72;;;23.95;;
21519;SDS011;10921;53.614;9.882;2023-03-01T02:38:06;34.17;;;24.58;;
21519;SDS011;10921;53.614;9.882;2023-03-01T02:40:34;37.35;;;24.75;;
21519;SDS011;10921;53.614;9.882;2023-03-01T02:43:04;34.03;;;23.85;;
21519;SDS011;10921;53.614;9.882;2023-03-01T02:45:35;41.03;;;24.80;;
21519;SDS011;10921;53.614;9.882;2023-03-01T02:48:01;35.70;;;25.05;;
21519;SDS011;10921;53.614;9.882;2023-03-01T02:52:56;35.83;;;24.73;;
21519;SDS011;10921;53.614;9.882;2023-03-01T02:55:30;33.13;;;22.00;;
21519;SDS011;10921;53.614;9.882;2023-03-01T02:57:57;34.53;;;22.85;;
21519;SDS011;10921;53.614;9.882;2023-03-01T03:00:32;33.70;;;23.00;;
21519;SDS011;10921;53.614;9.882;2023-03-01T03:03:06;36.78;;;22.52;;
21519;SDS011;10921;53.614;9.882;2023-03-01T03:05:33;34.63;;;22.35;;
21519;SDS011;10921;53.614;9.882;2023-03-01T03:08:01;39.42;;;24.10;;
21519;SDS011;10921;53.614;9.882;2023-03-01T03:10:33;32.05;;;23.15;;
21519;SDS011;10921;53.614;9.882;2023-03-01T03:13:03;29.58;;;22.92;;
21519;SDS011;10921;53.614;9.882;2023-03-01T03:15:31;39.33;;;25.17;;
21519;SDS011;10921;53.614;9.882;2023-03-01T03:18:03;35.67;;;23.83;;
21519;SDS011;10921;53.614;9.882;2023-03-01T03:20:33;34.92;;;22.65;;
21519;SDS011;10921;53.614;9.882;2023-03-01T03:23:00;38.17;;;23.30;;
21519;SDS011;10921;53.614;9.882;2023-03-01T03:25:27;34.22;;;23.40;;
21519;SDS011;10921;53.614;9.882;2023-03-01T03:27:55;34.97;;;22.20;;
21519;SDS011;10921;53.614;9.882;2023-03-01T03:30:26;33.97;;;23.35;;
21519;SDS011;10921;53.614;9.882;2023-03-01T03:32:55;35.92;;;23.90;;
21519;SDS011;10921;53.614;9.882;2023-03-01T03:37:52;35.78;;;22.90;;
21519;SDS011;10921;53.614;9.882;2023-03-01T03:40:29;31.63;;;21.38;;
21519;SDS011;10921;53.614;9.882;2023-03-01T03:42:57;34.88;;;22.73;;
21519;SDS011;10921;53.614;9.882;2023-03-01T03:45:24;33.45;;;21.77;;
21519;SDS011;10921;53.614;9.882;2023-03-01T03:47:50;30.95;;;20.48;;
21519;SDS011;10921;53.614;9.882;2023-03-01T03:50:17;31.02;;;21.38;;
21519;SDS011;10921;53.614;9.882;2023-03-01T03:52:44;35.05;;;23.00;;
21519;SDS011;10921;53.614;9.882;2023-03-01T03:55:11;30.45;;;21.45;;
21519;SDS011;10921;53.614;9.882;2023-03-01T03:57:39;31.23;;;21.00;;
21519;SDS011;10921;53.614;9.882;2023-03-01T04:00:07;27.27;;;21.00;;
21519;SDS011;10921;53.614;9.882;2023-03-01T04:02:41;29.60;;;20.90;;
21519;SDS011;10921;53.614;9.882;2023-03-01T04:05:10;28.50;;;21.52;;
21519;SDS011;10921;53.614;9.882;2023-03-01T04:07:38;34.45;;;21.67;;
21519;SDS011;10921;53.614;9.882;2023-03-01T04:10:05;26.80;;;19.63;;
21519;SDS011;10921;53.614;9.882;2023-03-01T04:12:34;29.93;;;20.97;;
21519;SDS011;10921;53.614;9.882;2023-03-01T04:15:02;28.70;;;20.55;;
21519;SDS011;10921;53.614;9.882;2023-03-01T04:17:42;29.95;;;21.05;;
21519;SDS011;10921;53.614;9.882;2023-03-01T04:20:14;31.58;;;21.13;;
21519;SDS011;10921;53.614;9.882;2023-03-01T04:23:12;30.10;;;19.42;;
21519;SDS011;10921;53.614;9.882;2023-03-01T04:25:49;29.00;;;18.83;;
21519;SDS011;10921;53.614;9.882;2023-03-01T04:28:22;25.17;;;18.52;;
21519;SDS011;10921;53.614;9.882;2023-03-01T04:30:53;27.73;;;20.05;;
21519;SDS011;10921;53.614;9.882;2023-03-01T04:33:22;29.65;;;19.42;;
21519;SDS011;10921;53.614;9.882;2023-03-01T04:35:50;25.98;;;19.98;;
21519;SDS011;10921;53.614;9.882;2023-03-01T04:38:18;31.48;;;21.10;;
21519;SDS011;10921;53.614;9.882;2023-03-01T04:40:46;27.05;;;18.80;;
21519;SDS011;10921;53.614;9.882;2023-03-01T04:43:12;29.80;;;20.33;;
21519;SDS011;10921;53.614;9.882;2023-03-01T04:45:40;28.00;;;18.95;;
21519;SDS011;10921;53.614;9.882;2023-03-01T04:48:07;30.60;;;20.38;;
21519;SDS011;10921;53.614;9.882;2023-03-01T04:50:34;30.00;;;19.13;;
21519;SDS011;10921;53.614;9.882;2023-03-01T04:53:00;23.48;;;17.77;;
21519;SDS011;10921;53.614;9.882;2023-03-01T04:55:27;24.15;;;19.48;;
21519;SDS011;10921;53.614;9.882;2023-03-01T04:57:55;25.35;;;18.63;;
21519;SDS011;10921;53.614;9.882;2023-03-01T05:00:22;28.35;;;19.88;;
21519;SDS011;10921;53.614;9.882;2023-03-01T05:02:50;26.02;;;19.05;;
21519;SDS011;10921;53.614;9.882;2023-03-01T05:05:30;25.65;;;18.05;;
21519;SDS011;10921;53.614;9.882;2023-03-01T05:08:00;26.67;;;18.20;;
21519;SDS011;10921;53.614;9.882;2023-03-01T05:10:33;26.10;;;17.40;;
21519;SDS011;10921;53.614;9.882;2023-03-01T05:13:02;28.20;;;19.88;;
21519;SDS011;10921;53.614;9.882;2023-03-01T05:15:30;23.88;;;19.25;;
21519;SDS011;10921;53.614;9.882;2023-03-01T05:17:58;22.83;;;17.67;;
21519;SDS011;10921;53.614;9.882;2023-03-01T05:20:26;21.95;;;17.33;;
21519;SDS011;10921;53.614;9.882;2023-03-01T05:22:57;27.38;;;18.52;;
21519;SDS011;10921;53.614;9.882;2023-03-01T05:25:26;20.77;;;17.15;;
21519;SDS011;10921;53.614;9.882;2023-03-01T05:27:52;20.05;;;16.73;;
21519;SDS011;10921;53.614;9.882;2023-03-01T05:30:19;21.33;;;17.25;;
21519;SDS011;10921;53.614;9.882;2023-03-01T05:32:46;23.15;;;17.08;;
21519;SDS011;10921;53.614;9.882;2023-03-01T05:35:16;20.27;;;17.37;;
21519;SDS011;10921;53.614;9.882;2023-03-01T05:37:45;21.60;;;17.38;;
21519;SDS011;10921;53.614;9.882;2023-03-01T05:40:14;22.33;;;17.35;;
21519;SDS011;10921;53.614;9.882;2023-03-01T05:42:45;21.45;;;16.85;;
21519;SDS011;10921;53.614;9.882;2023-03-01T05:45:16;20.10;;;16.08;;
21519;SDS011;10921;53.614;9.882;2023-03-01T05:47:44;22.02;;;16.45;;
21519;SDS011;10921;53.614;9.882;2023-03-01T05:50:13;19.95;;;16.75;;
21519;SDS011;10921;53.614;9.882;2023-03-01T05:52:49;20.33;;;16.27;;
21519;SDS011;10921;53.614;9.882;2023-03-01T05:55:18;22.08;;;16.80;;
21519;SDS011;10921;53.614;9.882;2023-03-01T05:57:46;21.92;;;16.92;;
21519;SDS011;10921;53.614;9.882;2023-03-01T06:00:14;21.90;;;17.38;;
21519;SDS011;10921;53.614;9.882;2023-03-01T06:02:44;20.27;;;16.98;;
21519;SDS011;10921;53.614;9.882;2023-03-01T06:05:12;19.73;;;16.13;;
21519;SDS011;10921;53.614;9.882;2023-03-01T06:07:39;18.45;;;16.27;;
21519;SDS011;10921;53.614;9.882;2023-03-01T06:10:07;22.85;;;16.40;;
21519;SDS011;10921;53.614;9.882;2023-03-01T06:12:35;21.30;;;16.58;;
21519;SDS011;10921;53.614;9.882;2023-03-01T06:15:03;20.50;;;17.17;;
21519;SDS011;10921;53.614;9.882;2023-03-01T06:17:32;20.35;;;15.90;;
21519;SDS011;10921;53.614;9.882;2023-03-01T06:20:04;21.13;;;17.17;;
21519;SDS011;10921;53.614;9.882;2023-03-01T06:22:32;20.55;;;16.85;;
21519;SDS011;10921;53.614;9.882;2023-03-01T06:24:58;19.73;;;17.20;;
21519;SDS011;10921;53.614;9.882;2023-03-01T06:27:24;25.60;;;16.40;;
21519;SDS011;10921;53.614;9.882;2023-03-01T06:29:52;18.75;;;16.63;;
21519;SDS011;10921;53.614;9.882;2023-03-01T06:32:18;48.78;;;30.27;;
21519;SDS011;10921;53.614;9.882;2023-03-01T06:34:45;44.63;;;29.08;;
21519;SDS011;10921;53.614;9.882;2023-03-01T06:37:11;32.72;;;24.13;;
21519;SDS011;10921;53.614;9.882;2023-03-01T06:39:38;30.70;;;22.02;;
21519;SDS011;10921;53.614;9.882;2023-03-01T06:42:05;26.83;;;21.77;;
21519;SDS011;10921;53.614;9.882;2023-03-01T06:44:31;23.15;;;19.80;;
21519;SDS011;10921;53.614;9.882;2023-03-01T06:46:58;23.33;;;20.25;;
21519;SDS011;10921;53.614;9.882;2023-03-01T06:49:25;27.77;;;19.70;;
21519;SDS011;10921;53.614;9.882;2023-03-01T06:51:52;23.67;;;18.13;;
21519;SDS011;10921;53.614;9.882;2023-03-01T06:54:18;23.05;;;18.10;;
21519;SDS011;10921;53.614;9.882;2023-03-01T06:56:48;25.75;;;20.92;;
21519;SDS011;10921;53.614;9.882;2023-03-01T06:59:16;24.67;;;19.00;;
21519;SDS011;10921;53.614;9.882;2023-03-01T07:01:43;22.85;;;18.63;;
21519;SDS011;10921;53.614;9.882;2023-03-01T07:04:10;21.85;;;19.23;;
21519;SDS011;10921;53.614;9.882;2023-03-01T07:06:37;23.42;;;17.92;;
21519;SDS011;10921;53.614;9.882;2023-03-01T07:09:03;21.95;;;18.13;;
21519;SDS011;10921;53.614;9.882;2023-03-01T07:11:30;21.85;;;18.13;;
21519;SDS011;10921;53.614;9.882;2023-03-01T07:13:56;22.05;;;17.85;;
21519;SDS011;10921;53.614;9.882;2023-03-01T07:16:24;19.38;;;17.35;;
21519;SDS011;10921;53.614;9.882;2023-03-01T07:18:50;18.48;;;16.60;;
21519;SDS011;10921;53.614;9.882;2023-03-01T07:21:17;20.25;;;17.90;;
21519;SDS011;10921;53.614;9.882;2023-03-01T07:23:46;19.88;;;16.60;;
21519;SDS011;10921;53.614;9.882;2023-03-01T07:26:14;21.17;;;16.95;;
21519;SDS011;10921;53.614;9.882;2023-03-01T07:28:40;17.92;;;16.13;;
21519;SDS011;10921;53.614;9.882;2023-03-01T07:31:07;19.42;;;16.80;;
21519;SDS011;10921;53.614;9.882;2023-03-01T07:33:33;18.98;;;16.85;;
21519;SDS011;10921;53.614;9.882;2023-03-01T07:36:00;19.48;;;17.23;;
21519;SDS011;10921;53.614;9.882;2023-03-01T07:38:28;20.25;;;17.67;;
21519;SDS011;10921;53.614;9.882;2023-03-01T07:40:59;22.40;;;17.58;;
21519;SDS011;10921;53.614;9.882;2023-03-01T07:43:27;21.90;;;18.23;;
21519;SDS011;10921;53.614;9.882;2023-03-01T07:45:54;19.60;;;17.35;;
21519;SDS011;10921;53.614;9.882;2023-03-01T07:48:24;22.00;;;18.30;;
21519;SDS011;10921;53.614;9.882;2023-03-01T07:50:51;26.88;;;19.50;;
21519;SDS011;10921;53.614;9.882;2023-03-01T07:53:17;22.15;;;19.23;;
21519;SDS011;10921;53.614;9.882;2023-03-01T07:55:43;23.58;;;18.52;;
21519;SDS011;10921;53.614;9.882;2023-03-01T07:58:10;22.83;;;18.30;;
21519;SDS011;10921;53.614;9.882;2023-03-01T08:00:36;25.48;;;19.55;;
21519;SDS011;10921;53.614;9.882;2023-03-01T08:03:03;20.98;;;18.88;;
21519;SDS011;10921;53.614;9.882;2023-03-01T08:05:29;26.60;;;20.25;;
21519;SDS011;10921;53.614;9.882;2023-03-01T08:07:56;24.65;;;19.90;;
21519;SDS011;10921;53.614;9.882;2023-03-01T08:10:22;26.67;;;21.05;;
21519;SDS011;10921;53.614;9.882;2023-03-01T08:12:50;24.00;;;21.33;;
21519;SDS011;10921;53.614;9.882;2023-03-01T08:15:18;31.98;;;24.88;;
21519;SDS011;10921;53.614;9.882;2023-03-01T08:17:45;31.30;;;23.42;;
21519;SDS011;10921;53.614;9.882;2023-03-01T08:20:11;27.83;;;22.55;;
21519;SDS011;10921;53.614;9.882;2023-03-01T08:22:38;29.50;;;23.83;;
21519;SDS011;10921;53.614;9.882;2023-03-01T08:25:05;30.23;;;24.33;;
21519;SDS011;10921;53.614;9.882;2023-03-01T08:27:31;31.05;;;23.48;;
21519;SDS011;10921;53.614;9.882;2023-03-01T08:29:58;36.65;;;23.15;;
21519;SDS011;10921;53.614;9.882;2023-03-01T08:32:24;30.48;;;23.50;;
21519;SDS011;10921;53.614;9.882;2023-03-01T08:34:51;25.15;;;20.73;;
21519;SDS011;10921;53.614;9.882;2023-03-01T08:37:17;27.15;;;22.33;;
21519;SDS011;10921;53.614;9.882;2023-03-01T08:39:44;28.52;;;22.45;;
21519;SDS011;10921;53.614;9.882;2023-03-01T08:42:10;25.77;;;22.60;;
21519;SDS011;10921;53.614;9.882;2023-03-01T08:44:37;27.75;;;22.67;;
21519;SDS011;10921;53.614;9.882;2023-03-01T08:47:03;29.08;;;23.38;;
21519;SDS011;10921;53.614;9.882;2023-03-01T08:49:31;25.95;;;21.65;;
21519;SDS011;10921;53.614;9.882;2023-03-01T08:51:58;28.80;;;23.60;;
21519;SDS011;10921;53.614;9.882;2023-03-01T08:54:25;31.30;;;23.73;;
21519;SDS011;10921;53.614;9.882;2023-03-01T08:56:51;34.42;;;23.83;;
21519;SDS011;10921;53.614;9.882;2023-03-01T08:59:18;32.47;;;23.15;;
21519;SDS011;10921;53.614;9.882;2023-03-01T09:01:45;30.50;;;22.88;;
21519;SDS011;10921;53.614;9.882;2023-03-01T09:04:12;32.25;;;24.52;;
21519;SDS011;10921;53.614;9.882;2023-03-01T09:06:40;32.00;;;23.40;;
21519;SDS011;10921;53.614;9.882;2023-03-01T09:09:10;32.00;;;23.55;;
21519;SDS011;10921;53.614;9.882;2023-03-01T09:11:41;31.30;;;24.58;;
21519;SDS011;10921;53.614;9.882;2023-03-01T09:14:09;32.35;;;23.40;;
21519;SDS011;10921;53.614;9.882;2023-03-01T09:16:35;36.67;;;25.10;;
21519;SDS011;10921;53.614;9.882;2023-03-01T09:19:02;32.80;;;25.48;;
21519;SDS011;10921;53.614;9.882;2023-03-01T09:21:30;31.63;;;25.60;;
21519;SDS011;10921;53.614;9.882;2023-03-01T09:24:06;34.05;;;25.33;;
21519;SDS011;10921;53.614;9.882;2023-03-01T09:26:38;32.25;;;25.05;;
21519;SDS011;10921;53.614;9.882;2023-03-01T09:29:04;33.20;;;24.70;;
21519;SDS011;10921;53.614;9.882;2023-03-01T09:31:31;31.92;;;24.27;;
21519;SDS011;10921;53.614;9.882;2023-03-01T09:33:57;33.25;;;24.42;;
21519;SDS011;10921;53.614;9.882;2023-03-01T09:36:24;34.25;;;24.85;;
21519;SDS011;10921;53.614;9.882;2023-03-01T09:38:55;35.72;;;24.25;;
21519;SDS011;10921;53.614;9.882;2023-03-01T09:46:53;33.92;;;24.55;;
21519;SDS011;10921;53.614;9.882;2023-03-01T09:49:21;33.90;;;24.77;;
21519;SDS011;10921;53.614;9.882;2023-03-01T09:51:58;34.53;;;25.50;;
21519;SDS011;10921;53.614;9.882;2023-03-01T09:54:29;34.53;;;24.80;;
21519;SDS011;10921;53.614;9.882;2023-03-01T09:59:57;39.28;;;26.60;;
21519;SDS011;10921;53.614;9.882;2023-03-01T10:02:49;34.58;;;25.30;;
21519;SDS011;10921;53.614;9.882;2023-03-01T10:08:24;42.10;;;28.67;;
21519;SDS011;10921;53.614;9.882;2023-03-01T10:10:57;40.80;;;28.63;;
21519;SDS011;10921;53.614;9.882;2023-03-01T10:16:21;35.70;;;26.17;;
21519;SDS011;10921;53.614;9.882;2023-03-01T10:18:57;41.58;;;28.63;;
21519;SDS011;10921;53.614;9.882;2023-03-01T10:21:27;33.28;;;26.20;;
21519;SDS011;10921;53.614;9.882;2023-03-01T10:24:08;36.97;;;27.45;;
21519;SDS011;10921;53.614;9.882;2023-03-01T10:26:41;31.58;;;24.50;;
21519;SDS011;10921;53.614;9.882;2023-03-01T10:29:14;30.42;;;24.20;;
21519;SDS011;10921;53.614;9.882;2023-03-01T10:31:45;33.95;;;25.40;;
21519;SDS011;10921;53.614;9.882;2023-03-01T10:34:15;29.83;;;23.20;;
21519;SDS011;10921;53.614;9.882;2023-03-01T10:36:44;31.17;;;24.48;;
21519;SDS011;10921;53.614;9.882;2023-03-01T10:39:15;31.08;;;24.90;;
21519;SDS011;10921;53.614;9.882;2023-03-01T10:41:58;26.30;;;21.90;;
21519;SDS011;10921;53.614;9.882;2023-03-01T10:47:01;27.35;;;22.13;;
21519;SDS011;10921;53.614;9.882;2023-03-01T10:49:30;29.20;;;23.67;;
21519;SDS011;10921;53.614;9.882;2023-03-01T10:51:57;27.02;;;22.23;;
21519;SDS011;10921;53.614;9.882;2023-03-01T10:54:50;25.67;;;22.67;;
21519;SDS011;10921;53.614;9.882;2023-03-01T10:57:29;27.27;;;23.02;;
21519;SDS011;10921;53.614;9.882;2023-03-01T11:00:24;25.25;;;20.77;;
21519;SDS011;10921;53.614;9.882;2023-03-01T11:05:25;24.67;;;20.33;;
21519;SDS011;10921;53.614;9.882;2023-03-01T11:07:55;22.45;;;19.23;;
21519;SDS011;10921;53.614;9.882;2023-03-01T11:10:34;27.80;;;21.92;;
21519;SDS011;10921;53.614;9.882;2023-03-01T11:13:15;23.88;;;21.25;;
21519;SDS011;10921;53.614;9.882;2023-03-01T11:15:58;24.13;;;20.88;;
21519;SDS011;10921;53.614;9.882;2023-03-01T11:18:27;24.35;;;21.08;;
21519;SDS011;10921;53.614;9.882;2023-03-01T11:21:13;23.00;;;20.60;;
21519;SDS011;10921;53.614;9.882;2023-03-01T11:23:41;23.00;;;19.70;;
21519;SDS011;10921;53.614;9.882;2023-03-01T11:26:12;28.73;;;22.05;;
21519;SDS011;10921;53.614;9.882;2023-03-01T11:28:41;24.17;;;21.40;;
21519;SDS011;10921;53.614;9.882;2023-03-01T11:31:10;25.77;;;21.65;;
21519;SDS011;10921;53.614;9.882;2023-03-01T11:36:34;25.15;;;22.45;;
21519;SDS011;10921;53.614;9.882;2023-03-01T11:39:27;23.95;;;21.38;;
21519;SDS011;10921;53.614;9.882;2023-03-01T11:42:15;23.33;;;20.92;;
21519;SDS011;10921;53.614;9.882;2023-03-01T11:44:47;28.17;;;21.23;;
21519;SDS011;10921;53.614;9.882;2023-03-01T11:50:17;22.80;;;20.17;;
21519;SDS011;10921;53.614;9.882;2023-03-01T12:06:55;24.63;;;20.45;;
21519;SDS011;10921;53.614;9.882;2023-03-01T12:17:47;22.80;;;20.35;;
21519;SDS011;10921;53.614;9.882;2023-03-01T12:24:20;22.55;;;19.60;;
21519;SDS011;10921;53.614;9.882;2023-03-01T12:26:35;18.73;;;16.52;;
21519;SDS011;10921;53.614;9.882;2023-03-01T12:40:12;20.52;;;18.33;;
21519;SDS011;10921;53.614;9.882;2023-03-01T12:48:43;19.65;;;17.63;;
21519;SDS011;10921;53.614;9.882;2023-03-01T12:51:33;20.95;;;18.00;;
21519;SDS011;10921;53.614;9.882;2023-03-01T12:54:25;20.05;;;18.00;;
21519;SDS011;10921;53.614;9.882;2023-03-01T12:56:55;21.40;;;18.33;;
21519;SDS011;10921;53.614;9.882;2023-03-01T12:59:37;21.17;;;18.83;;
21519;SDS011;10921;53.614;9.882;2023-03-01T13:05:01;19.20;;;17.30;;
21519;SDS011;10921;53.614;9.882;2023-03-01T13:07:48;18.85;;;16.90;;
21519;SDS011;10921;53.614;9.882;2023-03-01T13:17:49;20.23;;;18.17;;
21519;SDS011;10921;53.614;9.882;2023-03-01T13:20:18;19.65;;;17.65;;
21519;SDS011;10921;53.614;9.882;2023-03-01T13:22:59;20.92;;;18.48;;
21519;SDS011;10921;53.614;9.882;2023-03-01T13:25:27;20.70;;;18.50;;
21519;SDS011;10921;53.614;9.882;2023-03-01T13:31:05;19.45;;;17.05;;
21519;SDS011;10921;53.614;9.882;2023-03-01T13:33:40;21.25;;;18.20;;
21519;SDS011;10921;53.614;9.882;2023-03-01T13:47:05;20.00;;;17.50;;
21519;SDS011;10921;53.614;9.882;2023-03-01T13:49:50;19.02;;;17.02;;
21519;SDS011;10921;53.614;9.882;2023-03-01T13:55:06;17.13;;;15.32;;
21519;SDS011;10921;53.614;9.882;2023-03-01T13:57:40;19.48;;;17.35;;
21519;SDS011;10921;53.614;9.882;2023-03-01T14:00:55;18.10;;;15.90;;
21519;SDS011;10921;53.614;9.882;2023-03-01T14:03:16;18.02;;;15.23;;
21519;SDS011;10921;53.614;9.882;2023-03-01T14:06:07;17.10;;;15.30;;
21519;SDS011;10921;53.614;9.882;2023-03-01T14:08:47;16.48;;;14.93;;
21519;SDS011;10921;53.614;9.882;2023-03-01T14:13:59;18.23;;;16.13;;
21519;SDS011;10921;53.614;9.882;2023-03-01T14:19:23;17.95;;;16.13;;
21519;SDS011;10921;53.614;9.882;2023-03-01T14:22:02;19.63;;;17.48;;
21519;SDS011;10921;53.614;9.882;2023-03-01T14:24:33;22.67;;;17.40;;
21519;SDS011;10921;53.614;9.882;2023-03-01T14:27:04;17.55;;;15.73;;
21519;SDS011;10921;53.614;9.882;2023-03-01T14:29:36;18.63;;;16.65;;
21519;SDS011;10921;53.614;9.882;2023-03-01T14:34:42;17.48;;;15.73;;
21519;SDS011;10921;53.614;9.882;2023-03-01T14:39:59;17.90;;;15.77;;
21519;SDS011;10921;53.614;9.882;2023-03-01T14:42:31;18.40;;;16.42;;
21519;SDS011;10921;53.614;9.882;2023-03-01T14:45:02;18.45;;;16.55;;
21519;SDS011;10921;53.614;9.882;2023-03-01T14:47:31;18.52;;;16.63;;
21519;SDS011;10921;53.614;9.882;2023-03-01T14:50:09;17.05;;;15.35;;
21519;SDS011;10921;53.614;9.882;2023-03-01T14:52:46;18.45;;;16.45;;
21519;SDS011;10921;53.614;9.882;2023-03-01T14:55:34;21.23;;;18.15;;
21519;SDS011;10921;53.614;9.882;2023-03-01T14:58:08;20.05;;;17.48;;
21519;SDS011;10921;53.614;9.882;2023-03-01T15:00:47;20.15;;;18.05;;
21519;SDS011;10921;53.614;9.882;2023-03-01T15:03:23;21.20;;;18.52;;
21519;SDS011;10921;53.614;9.882;2023-03-01T15:05:50;20.17;;;17.23;;
21519;SDS011;10921;53.614;9.882;2023-03-01T15:08:20;20.83;;;18.17;;
21519;SDS011;10921;53.614;9.882;2023-03-01T15:13:41;20.98;;;18.17;;
21519;SDS011;10921;53.614;9.882;2023-03-01T15:18:34;26.02;;;20.05;;
21519;SDS011;10921;53.614;9.882;2023-03-01T15:21:06;24.10;;;20.23;;
21519;SDS011;10921;53.614;9.882;2023-03-01T15:23:36;22.17;;;19.63;;
21519;SDS011;10921;53.614;9.882;2023-03-01T15:26:05;26.70;;;21.38;;
21519;SDS011;10921;53.614;9.882;2023-03-01T15:28:33;26.48;;;20.27;;
21519;SDS011;10921;53.614;9.882;2023-03-01T15:31:18;22.95;;;19.98;;
21519;SDS011;10921;53.614;9.882;2023-03-01T15:33:48;27.02;;;20.73;;
21519;SDS011;10921;53.614;9.882;2023-03-01T15:36:31;26.50;;;21.10;;
21519;SDS011;10921;53.614;9.882;2023-03-01T15:38:59;27.95;;;21.67;;
21519;SDS011;10921;53.614;9.882;2023-03-01T15:41:28;26.75;;;21.55;;
21519;SDS011;10921;53.614;9.882;2023-03-01T15:44:00;35.58;;;23.00;;
21519;SDS011;10921;53.614;9.882;2023-03-01T15:46:40;28.42;;;21.42;;
21519;SDS011;10921;53.614;9.882;2023-03-01T15:49:46;30.27;;;22.85;;
21519;SDS011;10921;53.614;9.882;2023-03-01T15:52:29;32.25;;;23.80;;
21519;SDS011;10921;53.614;9.882;2023-03-01T15:55:03;29.67;;;22.55;;
21519;SDS011;10921;53.614;9.882;2023-03-01T16:00:52;29.70;;;22.55;;
21519;SDS011;10921;53.614;9.882;2023-03-01T16:03:27;33.42;;;22.88;;
21519;SDS011;10921;53.614;9.882;2023-03-01T16:05:53;30.30;;;22.38;;
21519;SDS011;10921;53.614;9.882;2023-03-01T16:08:20;34.83;;;22.27;;
21519;SDS011;10921;53.614;9.882;2023-03-01T16:10:46;28.90;;;21.55;;
21519;SDS011;10921;53.614;9.882;2023-03-01T16:13:16;33.85;;;24.13;;
21519;SDS011;10921;53.614;9.882;2023-03-01T16:15:43;31.42;;;22.75;;
21519;SDS011;10921;53.614;9.882;2023-03-01T16:18:09;29.38;;;21.85;;
21519;SDS011;10921;53.614;9.882;2023-03-01T16:20:37;33.50;;;23.40;;
21519;SDS011;10921;53.614;9.882;2023-03-01T16:23:05;33.70;;;23.60;;
21519;SDS011;10921;53.614;9.882;2023-03-01T16:25:34;32.65;;;22.38;;
21519;SDS011;10921;53.614;9.882;2023-03-01T16:28:01;28.35;;;21.58;;
21519;SDS011;10921;53.614;9.882;2023-03-01T16:30:31;30.27;;;21.40;;
21519;SDS011;10921;53.614;9.882;2023-03-01T16:32:57;29.48;;;21.58;;
21519;SDS011;10921;53.614;9.882;2023-03-01T16:35:25;26.05;;;20.02;;
21519;SDS011;10921;53.614;9.882;2023-03-01T16:37:51;25.17;;;20.65;;
21519;SDS011;10921;53.614;9.882;2023-03-01T16:40:24;21.80;;;18.90;;
21519;SDS011;10921;53.614;9.882;2023-03-01T16:42:53;22.70;;;18.17;;
21519;SDS011;10921;53.614;9.882;2023-03-01T16:45:21;21.10;;;18.65;;
21519;SDS011;10921;53.614;9.882;2023-03-01T16:47:50;22.05;;;18.77;;